Time;durP1;ratioP1;P1;durP2;ratioP2;P2;SDS_P1;SDS_P2;PMS_P1;PMS_P2;Temp;Humidity;BMP_temperature;BMP_pressure;BME280_temperature;BME280_humidity;BME280_pressure;Samples;Min_cycle;Max_cycle;Signal;HPM_P1;HPM_P2
2021/03/06 00:00:22;;;;;;;4.10;1.20;;;5.90;72.10;;;;;;5114666;28;20401;-81
2021/03/06 00:02:48;;;;;;;7.85;1.95;;;5.90;72.40;;;;;;5114933;28;20110;-80
2021/03/06 00:05:14;;;;;;;9.80;2.00;;;5.80;72.40;;;;;;5100004;28;20038;-81
2021/03/06 00:07:40;;;;;;;6.18;1.50;;;5.80;72.50;;;;;;5114520;28;20024;-80
2021/03/06 00:10:12;;;;;;;12.77;2.25;;;5.80;72.60;;;;;;5114443;28;20032;-79
2021/03/06 00:12:39;;;;;;;3.42;1.60;;;5.80;72.40;;;;;;5101240;28;20133;-81
2021/03/06 00:15:06;;;;;;;3.35;1.25;;;5.70;72.50;;;;;;5100893;28;20036;-81
2021/03/06 00:17:33;;;;;;;13.98;1.90;;;5.70;72.50;;;;;;5113407;28;20058;-81
2021/03/06 00:19:58;;;;;;;3.75;1.48;;;5.70;72.50;;;;;;5114626;28;20039;-80
2021/03/06 00:22:24;;;;;;;7.63;1.90;;;5.70;72.60;;;;;;5114060;28;20019;-81
2021/03/06 00:24:50;;;;;;;8.38;1.92;;;5.70;72.80;;;;;;5113683;28;20047;-81
2021/03/06 00:27:15;;;;;;;14.88;1.88;;;5.70;73.20;;;;;;5099792;28;20059;-80
2021/03/06 00:29:41;;;;;;;3.20;1.50;;;5.70;73.30;;;;;;5106340;28;20501;-80
2021/03/06 00:32:07;;;;;;;8.75;1.70;;;5.60;73.20;;;;;;5107236;28;20024;-81
2021/03/06 00:34:32;;;;;;;5.43;1.92;;;5.60;73.20;;;;;;5114056;28;20031;-80
2021/03/06 00:37:01;;;;;;;10.57;2.63;;;5.60;73.10;;;;;;5113954;28;20046;-81
2021/03/06 00:39:26;;;;;;;4.78;1.65;;;5.60;73.10;;;;;;5113523;28;20478;-81
2021/03/06 00:41:52;;;;;;;14.85;2.13;;;5.60;73.00;;;;;;5114042;28;20023;-80
2021/03/06 00:44:18;;;;;;;9.40;2.65;;;5.60;72.90;;;;;;5113866;28;20044;-80
2021/03/06 00:46:44;;;;;;;7.03;1.90;;;5.60;73.00;;;;;;5113687;28;20023;-81
2021/03/06 00:49:10;;;;;;;12.93;1.90;;;5.60;73.10;;;;;;5113770;28;20149;-81
2021/03/06 00:51:37;;;;;;;1.55;1.40;;;5.60;73.10;;;;;;5113887;28;20024;-80
2021/03/06 00:54:03;;;;;;;7.43;2.05;;;5.50;73.50;;;;;;5113700;28;20032;-80
2021/03/06 00:56:29;;;;;;;4.00;1.83;;;5.60;73.90;;;;;;5112170;28;20031;-80
2021/03/06 00:58:54;;;;;;;7.10;1.88;;;5.50;74.10;;;;;;5113859;28;20031;-81
2021/03/06 01:01:20;;;;;;;8.68;2.00;;;5.60;74.00;;;;;;5102601;28;20058;-81
2021/03/06 01:03:46;;;;;;;4.32;1.58;;;5.60;74.10;;;;;;5107576;28;20406;-81
2021/03/06 01:06:12;;;;;;;5.45;1.92;;;5.50;74.10;;;;;;5106908;28;20039;-80
2021/03/06 01:08:37;;;;;;;4.85;1.40;;;5.50;74.30;;;;;;5113173;28;20043;-80
2021/03/06 01:11:04;;;;;;;9.73;1.52;;;5.50;74.50;;;;;;5105048;28;20028;-81
2021/03/06 01:13:32;;;;;;;4.72;1.35;;;5.60;74.90;;;;;;5107253;28;20497;-80
2021/03/06 01:15:58;;;;;;;2.03;1.20;;;5.60;75.00;;;;;;5107346;28;20773;-81
2021/03/06 01:18:23;;;;;;;11.30;1.70;;;5.60;75.00;;;;;;5113130;28;20039;-80
2021/03/06 01:20:49;;;;;;;6.80;1.92;;;5.50;74.80;;;;;;5112763;28;20047;-80
2021/03/06 01:23:15;;;;;;;0.68;0.65;;;5.60;75.00;;;;;;5113013;28;20035;-80
2021/03/06 01:25:41;;;;;;;5.72;1.52;;;5.50;75.10;;;;;;5112082;28;20134;-81
2021/03/06 01:28:07;;;;;;;11.32;1.77;;;5.50;75.40;;;;;;5112679;28;20122;-81
2021/03/06 01:30:33;;;;;;;9.23;2.20;;;5.50;75.30;;;;;;5112987;28;20127;-81
2021/03/06 01:32:59;;;;;;;3.83;1.40;;;5.50;75.10;;;;;;5112836;28;20059;-81
2021/03/06 01:35:25;;;;;;;4.03;1.30;;;5.50;74.90;;;;;;5112607;28;20442;-81
2021/03/06 01:37:52;;;;;;;5.63;1.92;;;5.60;75.30;;;;;;5112888;28;20032;-81
2021/03/06 01:40:22;;;;;;;12.40;1.80;;;5.50;75.30;;;;;;5113142;28;20492;-81
2021/03/06 01:42:48;;;;;;;5.18;1.13;;;5.50;75.60;;;;;;5112598;28;20698;-81
2021/03/06 01:45:13;;;;;;;11.68;1.90;;;5.50;75.70;;;;;;5113030;28;20027;-81
2021/03/06 01:47:39;;;;;;;3.30;1.27;;;5.50;75.90;;;;;;5112935;28;20022;-81
2021/03/06 01:50:07;;;;;;;2.13;1.30;;;5.50;76.00;;;;;;5112592;28;20035;-81
2021/03/06 01:52:33;;;;;;;2.17;1.30;;;5.40;76.00;;;;;;5113052;28;20034;-82
2021/03/06 01:55:00;;;;;;;1.65;1.20;;;5.40;76.70;;;;;;5112930;28;20023;-81
2021/03/06 01:57:26;;;;;;;7.60;1.67;;;5.40;76.20;;;;;;5112694;28;20133;-81
2021/03/06 01:59:52;;;;;;;3.10;1.40;;;5.50;76.10;;;;;;5098147;28;20485;-82
2021/03/06 02:02:21;;;;;;;10.60;1.30;;;5.50;76.30;;;;;;5113110;28;20039;-81
2021/03/06 02:04:49;;;;;;;15.68;1.85;;;5.40;76.40;;;;;;5112681;28;20035;-82
2021/03/06 02:07:15;;;;;;;0.50;0.50;;;5.50;76.60;;;;;;5112990;28;20046;-81
2021/03/06 02:09:42;;;;;;;0.85;0.85;;;5.40;76.60;;;;;;5113001;28;20103;-82
2021/03/06 02:12:26;;;;;;;0.50;0.50;;;5.40;76.60;;;;;;5097855;28;20039;-82
2021/03/06 02:15:02;;;;;;;0.60;0.60;;;5.40;76.70;;;;;;5112793;28;20077;-81
2021/03/06 02:17:39;;;;;;;8.48;0.90;;;5.30;76.70;;;;;;5112479;28;20108;-82
2021/03/06 02:20:27;;;;;;;1.02;0.95;;;5.30;76.70;;;;;;5112839;28;20034;-81
2021/03/06 02:23:22;;;;;;;0.88;0.65;;;5.30;76.70;;;;;;5092450;28;20028;-82
2021/03/06 02:26:10;;;;;;;0.60;0.60;;;5.20;76.90;;;;;;5109478;28;20051;-81
2021/03/06 02:28:49;;;;;;;0.55;0.55;;;5.20;77.00;;;;;;5112777;28;20057;-82
2021/03/06 02:31:15;;;;;;;1.17;1.08;;;5.20;77.20;;;;;;5112592;28;20035;-82
2021/03/06 02:33:48;;;;;;;0.50;0.50;;;5.10;77.30;;;;;;5106906;28;20021;-82
2021/03/06 02:36:18;;;;;;;2.38;1.27;;;5.10;77.50;;;;;;5108369;28;20473;-82
2021/03/06 02:38:47;;;;;;;6.22;1.25;;;5.10;77.60;;;;;;5116003;28;20080;-82
2021/03/06 02:41:13;;;;;;;5.30;1.20;;;5.10;77.70;;;;;;5116393;28;20038;-80
2021/03/06 02:43:41;;;;;;;15.63;0.93;;;5.10;77.70;;;;;;5116389;28;20044;-83
2021/03/06 02:46:08;;;;;;;6.15;1.92;;;5.10;77.80;;;;;;5115700;28;20031;-82
2021/03/06 02:48:35;;;;;;;5.32;2.10;;;5.20;77.80;;;;;;5116154;28;20043;-82
2021/03/06 02:51:01;;;;;;;7.07;1.20;;;5.20;77.90;;;;;;5116256;28;20023;-81
2021/03/06 02:53:27;;;;;;;2.10;1.30;;;5.20;77.80;;;;;;5115743;28;20016;-82
2021/03/06 02:55:53;;;;;;;5.35;1.63;;;5.20;77.80;;;;;;5116064;28;20031;-81
2021/03/06 02:58:31;;;;;;;1.25;1.15;;;5.30;77.70;;;;;;5115933;28;20039;-81
2021/03/06 03:01:16;;;;;;;0.93;0.93;;;5.30;77.60;;;;;;5109557;28;20031;-81
2021/03/06 03:03:56;;;;;;;4.32;1.35;;;5.30;77.60;;;;;;5114670;28;20083;-80
2021/03/06 03:06:36;;;;;;;2.65;1.02;;;5.30;77.50;;;;;;5109812;28;20028;-80
2021/03/06 03:09:19;;;;;;;0.50;0.50;;;5.30;77.60;;;;;;5115481;28;20110;-81
2021/03/06 03:11:56;;;;;;;0.47;0.47;;;5.30;77.60;;;;;;5115462;28;20471;-80
2021/03/06 03:14:28;;;;;;;0.45;0.45;;;5.30;77.50;;;;;;5114547;28;20028;-81
2021/03/06 03:17:10;;;;;;;3.25;1.20;;;5.30;77.50;;;;;;5114056;28;20043;-81
2021/03/06 03:20:00;;;;;;;0.60;0.60;;;5.30;77.60;;;;;;5115876;28;20031;-81
2021/03/06 03:22:29;;;;;;;0.52;0.52;;;5.30;77.80;;;;;;5102012;28;20051;-81
2021/03/06 03:24:58;;;;;;;1.95;0.65;;;5.20;77.80;;;;;;5115021;28;20150;-81
2021/03/06 03:27:25;;;;;;;3.95;0.80;;;5.30;77.80;;;;;;5114826;28;20099;-81
2021/03/06 03:29:52;;;;;;;1.10;0.90;;;5.20;77.80;;;;;;5106670;28;20379;-78
2021/03/06 03:32:20;;;;;;;2.15;1.13;;;5.20;77.90;;;;;;5113163;28;20027;-79
2021/03/06 03:34:48;;;;;;;0.85;0.85;;;5.20;78.00;;;;;;5114959;28;20050;-79
2021/03/06 03:37:14;;;;;;;4.30;1.13;;;5.20;78.00;;;;;;5115239;28;20024;-79
2021/03/06 03:39:41;;;;;;;1.38;0.70;;;5.20;78.00;;;;;;5115025;28;20028;-78
2021/03/06 03:42:07;;;;;;;0.70;0.70;;;5.20;78.00;;;;;;5114921;28;20055;-80
2021/03/06 03:44:38;;;;;;;1.98;1.17;;;5.20;78.00;;;;;;5100538;28;20043;-79
2021/03/06 03:47:04;;;;;;;4.53;1.40;;;5.20;78.00;;;;;;5115431;28;20088;-79
2021/03/06 03:49:30;;;;;;;5.28;1.83;;;5.20;78.00;;;;;;5114019;28;20047;-79
2021/03/06 03:51:58;;;;;;;5.70;1.67;;;5.30;78.00;;;;;;5114949;28;20472;-79
2021/03/06 03:54:25;;;;;;;2.92;1.13;;;5.30;78.00;;;;;;5115030;28;20068;-79
2021/03/06 03:56:50;;;;;;;5.93;1.13;;;5.30;78.10;;;;;;5114595;28;20027;-79
2021/03/06 03:59:16;;;;;;;8.85;1.65;;;5.30;78.00;;;;;;5114622;28;20375;-80
2021/03/06 04:01:43;;;;;;;6.90;1.67;;;5.30;78.00;;;;;;5114947;28;20462;-79
2021/03/06 04:04:31;;;;;;;8.57;1.50;;;5.30;77.90;;;;;;5114324;28;20042;-80
2021/03/06 04:06:58;;;;;;;8.73;2.38;;;5.40;77.90;;;;;;5114562;28;20107;-80
2021/03/06 04:09:24;;;;;;;8.30;1.73;;;5.40;77.80;;;;;;5114453;28;20036;-80
2021/03/06 04:11:50;;;;;;;5.78;1.80;;;5.50;77.80;;;;;;5114455;28;20028;-79
2021/03/06 04:14:16;;;;;;;6.30;1.33;;;5.50;77.70;;;;;;5114430;28;20391;-80
2021/03/06 04:16:42;;;;;;;5.40;1.42;;;5.60;77.60;;;;;;5114143;28;20028;-79
2021/03/06 04:19:11;;;;;;;2.90;1.13;;;5.60;77.60;;;;;;5114504;28;20386;-80
2021/03/06 04:21:37;;;;;;;2.17;1.23;;;5.60;77.50;;;;;;5114163;28;20451;-80
2021/03/06 04:24:03;;;;;;;4.35;1.73;;;5.60;77.60;;;;;;5113724;28;20130;-80
2021/03/06 04:26:28;;;;;;;4.10;1.38;;;5.50;77.50;;;;;;5114181;28;20424;-80
2021/03/06 04:28:54;;;;;;;6.78;1.55;;;5.60;77.60;;;;;;5114618;28;20032;-80
2021/03/06 04:31:20;;;;;;;4.22;1.48;;;5.60;77.60;;;;;;5113983;28;20131;-79
2021/03/06 04:33:46;;;;;;;2.47;1.40;;;5.50;77.60;;;;;;5114008;28;20087;-81
2021/03/06 04:36:12;;;;;;;8.77;1.20;;;5.50;77.60;;;;;;5114161;28;20386;-79
2021/03/06 04:38:38;;;;;;;4.22;1.10;;;5.60;77.80;;;;;;5113438;28;20030;-79
2021/03/06 04:41:04;;;;;;;1.75;1.02;;;5.50;77.80;;;;;;5113757;28;20453;-80
2021/03/06 04:43:30;;;;;;;5.35;1.65;;;5.60;77.80;;;;;;5114260;28;20039;-79
2021/03/06 04:45:55;;;;;;;4.18;1.67;;;5.50;77.80;;;;;;5114059;28;20027;-80
2021/03/06 04:48:21;;;;;;;8.75;1.48;;;5.60;77.80;;;;;;5114451;28;20409;-80
2021/03/06 04:50:47;;;;;;;1.73;1.25;;;5.50;77.90;;;;;;5113887;28;20039;-79
2021/03/06 04:53:12;;;;;;;1.75;1.17;;;5.50;78.50;;;;;;5113617;28;20032;-79
2021/03/06 04:55:38;;;;;;;4.55;1.17;;;5.50;78.00;;;;;;5113975;28;20037;-79
2021/03/06 04:58:03;;;;;;;4.60;1.40;;;5.50;78.00;;;;;;5113703;28;20114;-79
2021/03/06 05:00:31;;;;;;;3.67;1.00;;;5.50;78.00;;;;;;5100590;28;20024;-81
2021/03/06 05:02:57;;;;;;;6.55;1.92;;;5.50;78.00;;;;;;5109919;28;20364;-79
2021/03/06 05:05:23;;;;;;;5.70;1.77;;;5.50;78.00;;;;;;5113567;28;20073;-81
2021/03/06 05:07:49;;;;;;;2.38;1.30;;;5.50;78.00;;;;;;5110610;28;20051;-82
2021/03/06 05:10:14;;;;;;;7.43;1.52;;;5.60;78.20;;;;;;5113638;28;20490;-81
2021/03/06 05:12:40;;;;;;;7.38;1.40;;;5.50;78.10;;;;;;5113804;28;20104;-81
2021/03/06 05:15:09;;;;;;;3.58;1.38;;;5.60;78.10;;;;;;5105705;28;20100;-81
2021/03/06 05:17:34;;;;;;;7.22;1.23;;;5.60;78.10;;;;;;5113344;28;20036;-81
2021/03/06 05:20:00;;;;;;;3.13;1.25;;;5.50;78.10;;;;;;5112935;28;20024;-82
2021/03/06 05:22:26;;;;;;;4.63;1.60;;;5.50;78.10;;;;;;5113300;28;20528;-80
2021/03/06 05:24:52;;;;;;;5.05;1.65;;;5.50;78.70;;;;;;5112650;28;20055;-80
2021/03/06 05:27:18;;;;;;;1.63;1.08;;;5.50;78.10;;;;;;5113061;28;20028;-81
2021/03/06 05:29:43;;;;;;;5.30;1.50;;;5.50;78.10;;;;;;5112674;28;20027;-81
2021/03/06 05:32:09;;;;;;;0.82;0.80;;;5.50;78.10;;;;;;5113139;28;20030;-82
2021/03/06 05:34:35;;;;;;;1.13;0.90;;;5.50;78.10;;;;;;5112734;28;20371;-80
2021/03/06 05:37:02;;;;;;;4.47;1.20;;;5.50;78.10;;;;;;5112750;28;20020;-82
2021/03/06 05:39:27;;;;;;;2.13;1.10;;;5.40;78.10;;;;;;5113518;28;20035;-81
2021/03/06 05:41:53;;;;;;;5.03;1.13;;;5.40;78.20;;;;;;5112708;28;20035;-80
2021/03/06 05:44:20;;;;;;;3.00;1.83;;;5.40;78.30;;;;;;5111538;28;20039;-81
2021/03/06 05:46:45;;;;;;;4.40;1.33;;;5.40;78.30;;;;;;5113282;28;20027;-81
2021/03/06 05:49:14;;;;;;;3.85;1.63;;;5.40;78.40;;;;;;5112688;28;20028;-81
2021/03/06 05:51:41;;;;;;;1.17;1.00;;;5.40;78.50;;;;;;5112957;28;20077;-81
2021/03/06 05:54:12;;;;;;;4.75;2.13;;;5.40;78.40;;;;;;5113041;28;20031;-81
2021/03/06 05:56:43;;;;;;;8.48;1.50;;;5.40;78.50;;;;;;5112473;28;20030;-81
2021/03/06 05:59:13;;;;;;;1.60;1.00;;;5.50;78.40;;;;;;5112356;28;20496;-80
2021/03/06 06:01:41;;;;;;;1.17;0.88;;;5.50;78.40;;;;;;5111411;28;20020;-81
2021/03/06 06:04:08;;;;;;;7.75;1.08;;;5.50;78.30;;;;;;5112094;28;20093;-79
2021/03/06 06:06:35;;;;;;;2.05;1.05;;;5.50;78.20;;;;;;5112424;28;20026;-81
2021/03/06 06:09:05;;;;;;;3.30;1.08;;;5.40;78.10;;;;;;5112395;28;20062;-80
2021/03/06 06:11:35;;;;;;;7.15;1.60;;;5.40;78.80;;;;;;5112374;28;20352;-80
2021/03/06 06:14:02;;;;;;;7.18;1.38;;;5.50;78.40;;;;;;5114214;28;20036;-81
2021/03/06 06:16:32;;;;;;;14.98;1.88;;;5.40;78.40;;;;;;5113701;28;20737;-82
2021/03/06 06:19:01;;;;;;;1.13;0.88;;;5.40;78.40;;;;;;5116288;28;20032;-83
2021/03/06 06:21:43;;;;;;;2.35;1.27;;;5.40;78.50;;;;;;5116234;28;20424;-81
2021/03/06 06:24:14;;;;;;;3.75;1.30;;;5.40;78.50;;;;;;5115222;28;20047;-81
2021/03/06 06:26:50;;;;;;;4.53;1.55;;;5.40;78.50;;;;;;5114910;28;20478;-83
2021/03/06 06:29:16;;;;;;;1.50;1.27;;;5.40;78.50;;;;;;5110200;28;20046;-83
2021/03/06 06:31:52;;;;;;;2.25;1.20;;;5.40;78.50;;;;;;5096880;28;20020;-82
2021/03/06 06:34:18;;;;;;;1.95;1.38;;;5.40;78.50;;;;;;5115353;28;20491;-82
2021/03/06 06:36:44;;;;;;;3.60;1.35;;;5.40;78.50;;;;;;5116040;28;20027;-82
2021/03/06 06:39:10;;;;;;;9.27;1.60;;;5.40;78.50;;;;;;5115530;28;20078;-82
2021/03/06 06:42:08;;;;;;;3.53;1.60;;;5.40;78.60;;;;;;5115896;28;20032;-82
2021/03/06 06:44:34;;;;;;;2.70;1.08;;;5.40;78.60;;;;;;5080996;28;20053;-83
2021/03/06 06:47:18;;;;;;;4.05;1.15;;;5.40;78.50;;;;;;5115770;28;20016;-83
2021/03/06 06:49:48;;;;;;;5.43;1.20;;;5.50;78.70;;;;;;5105350;28;20038;-82
2021/03/06 06:52:17;;;;;;;1.10;0.95;;;5.50;78.70;;;;;;5115741;28;20061;-82
2021/03/06 06:54:52;;;;;;;3.35;1.30;;;5.40;78.70;;;;;;5115507;28;20027;-83
2021/03/06 06:57:17;;;;;;;0.88;0.82;;;5.50;78.80;;;;;;5115987;28;20024;-83
2021/03/06 07:00:06;;;;;;;1.13;1.00;;;5.50;78.80;;;;;;5112408;28;20474;-83
2021/03/06 07:02:33;;;;;;;1.83;0.77;;;5.50;78.80;;;;;;5113769;28;20027;-82
2021/03/06 07:05:03;;;;;;;0.63;0.57;;;5.50;78.70;;;;;;5114363;28;20043;-82
2021/03/06 07:07:37;;;;;;;0.85;0.68;;;5.50;78.80;;;;;;5115092;28;20051;-80
2021/03/06 07:10:05;;;;;;;;;;;5.50;78.90;;;;;;5115350;28;20031;-84
2021/03/06 07:12:36;;;;;;;0.70;0.70;;;5.50;78.90;;;;;;5115256;28;19957;-82
2021/03/06 07:15:18;;;;;;;0.75;0.75;;;5.50;78.90;;;;;;5113417;28;20111;-83
2021/03/06 07:17:47;;;;;;;0.63;0.63;;;5.40;79.00;;;;;;5116032;28;20424;-83
2021/03/06 07:20:34;;;;;;;5.35;0.90;;;5.50;79.10;;;;;;5115214;27;20072;-82
2021/03/06 07:23:11;;;;;;;6.20;1.30;;;5.40;79.20;;;;;;5114979;28;20100;-83
2021/03/06 07:25:37;;;;;;;0.98;0.98;;;5.40;79.30;;;;;;5114522;28;20050;-82
2021/03/06 07:28:03;;;;;;;0.40;0.40;;;5.50;79.40;;;;;;5116627;28;20035;-81
2021/03/06 07:30:29;;;;;;;0.70;0.70;;;5.50;79.40;;;;;;5116774;28;20027;-83
2021/03/06 07:32:57;;;;;;;6.43;0.90;;;5.40;79.40;;;;;;5115483;28;20033;-83
2021/03/06 07:35:24;;;;;;;8.30;0.65;;;5.50;79.60;;;;;;5114912;28;20106;-84
2021/03/06 07:37:57;;;;;;;0.70;0.70;;;5.50;79.70;;;;;;5115284;28;20092;-81
2021/03/06 07:40:41;;;;;;;0.40;0.40;;;5.50;79.80;;;;;;5114967;28;20401;-83
2021/03/06 07:43:17;;;;;;;0.63;0.63;;;5.40;79.80;;;;;;5113469;28;20122;-82
2021/03/06 07:45:45;;;;;;;1.15;0.70;;;5.50;80.00;;;;;;5115160;28;20059;-80
2021/03/06 07:48:15;;;;;;;0.70;0.70;;;5.50;80.10;;;;;;5110240;28;20040;-84
2021/03/06 07:50:47;;;;;;;0.60;0.60;;;5.50;80.20;;;;;;5109547;28;20474;-78
2021/03/06 07:53:14;;;;;;;6.32;1.67;;;5.50;80.30;;;;;;5113528;28;20114;-82
2021/03/06 07:55:40;;;;;;;2.33;1.50;;;5.50;80.30;;;;;;5114203;28;20103;-82
2021/03/06 07:58:18;;;;;;;0.45;0.45;;;5.50;80.30;;;;;;5114424;28;20423;-82
2021/03/06 08:00:53;;;;;;;1.25;0.90;;;5.50;80.40;;;;;;5113153;28;20538;-79
2021/03/06 08:03:29;;;;;;;2.40;1.20;;;5.60;80.40;;;;;;5110415;28;20040;-80
2021/03/06 08:06:02;;;;;;;0.60;0.55;;;5.60;80.40;;;;;;5110379;28;20042;-80
2021/03/06 08:08:33;;;;;;;2.05;1.05;;;5.60;80.40;;;;;;5113604;28;20467;-83
2021/03/06 08:11:13;;;;;;;0.60;0.60;;;5.60;80.40;;;;;;5111978;28;20030;-82
2021/03/06 08:13:47;;;;;;;0.50;0.50;;;5.70;80.50;;;;;;5113920;28;20069;-83
2021/03/06 08:19:13;;;;;;;3.95;0.98;;;5.70;81.30;;;;;;5113870;28;20027;-78
2021/03/06 08:21:44;;;;;;;2.90;1.10;;;5.70;80.80;;;;;;5090000;27;20027;-78
2021/03/06 08:24:13;;;;;;;2.90;1.27;;;5.70;81.00;;;;;;5109993;28;20036;-79
2021/03/06 08:26:42;;;;;;;0.82;0.82;;;5.80;81.20;;;;;;5108440;28;20040;-79
2021/03/06 08:29:23;;;;;;;3.53;1.20;;;5.80;81.10;;;;;;5110138;28;20051;-81
2021/03/06 08:32:04;;;;;;;1.45;0.82;;;5.80;81.40;;;;;;5109788;28;20023;-79
2021/03/06 08:34:45;;;;;;;0.60;0.60;;;5.90;81.40;;;;;;5110597;28;20356;-82
2021/03/06 08:37:14;;;;;;;1.15;0.75;;;5.90;81.20;;;;;;5112394;28;20379;-83
2021/03/06 08:39:50;;;;;;;3.67;1.33;;;6.00;81.30;;;;;;5113436;28;20028;-80
2021/03/06 08:42:26;;;;;;;5.38;1.48;;;6.00;81.40;;;;;;5113123;28;20031;-81
2021/03/06 08:44:54;;;;;;;6.30;1.17;;;6.00;81.90;;;;;;5113984;28;20092;-82
2021/03/06 08:47:32;;;;;;;0.75;0.60;;;6.00;81.80;;;;;;5113828;27;20027;-83
2021/03/06 08:50:01;;;;;;;2.65;1.45;;;6.00;81.70;;;;;;5113939;28;20036;-76
2021/03/06 08:52:28;;;;;;;3.97;1.15;;;6.10;81.70;;;;;;5108110;28;20024;-80
2021/03/06 08:54:56;;;;;;;0.88;0.88;;;6.10;82.00;;;;;;5090945;28;20028;-80
2021/03/06 08:57:33;;;;;;;3.75;1.10;;;6.10;82.00;;;;;;5106144;28;20519;-81
2021/03/06 09:00:06;;;;;;;14.60;2.00;;;6.20;82.30;;;;;;5103921;28;20032;-83
2021/03/06 09:02:33;;;;;;;2.00;1.02;;;6.20;82.50;;;;;;5113696;28;20367;-80
2021/03/06 09:05:18;;;;;;;6.78;1.80;;;6.30;82.30;;;;;;5106404;28;20035;-83
2021/03/06 09:07:49;;;;;;;4.80;0.90;;;6.30;82.60;;;;;;5107961;28;20084;-84
2021/03/06 09:10:19;;;;;;;0.77;0.63;;;6.30;82.40;;;;;;5113667;28;20478;-83
2021/03/06 09:12:48;;;;;;;0.80;0.68;;;6.40;82.20;;;;;;5112730;28;20026;-73
2021/03/06 09:15:27;;;;;;;2.05;1.23;;;6.50;82.10;;;;;;5113056;28;20031;-73
2021/03/06 09:17:53;;;;;;;2.17;0.80;;;6.50;82.20;;;;;;5107572;28;20549;-82
2021/03/06 09:20:19;;;;;;;2.40;1.13;;;6.50;82.10;;;;;;5113054;28;20027;-83
2021/03/06 09:22:49;;;;;;;10.05;2.08;;;6.50;82.10;;;;;;5113174;28;20033;-83
2021/03/06 09:25:26;;;;;;;1.17;0.75;;;6.60;82.20;;;;;;5112746;28;20176;-83
2021/03/06 09:27:51;;;;;;;1.17;0.95;;;6.60;82.10;;;;;;5109032;28;20047;-77
2021/03/06 09:30:26;;;;;;;1.85;0.63;;;6.60;82.20;;;;;;5111708;28;20363;-79
2021/03/06 09:32:52;;;;;;;12.40;1.10;;;6.70;82.10;;;;;;5113192;28;20105;-79
2021/03/06 09:35:19;;;;;;;3.33;1.40;;;6.70;82.00;;;;;;5112523;28;20023;-79
2021/03/06 09:37:46;;;;;;;2.50;1.00;;;6.80;82.10;;;;;;5112929;28;20076;-80
2021/03/06 09:40:22;;;;;;;1.50;0.90;;;6.80;82.00;;;;;;5112814;28;20033;-80
2021/03/06 09:42:51;;;;;;;1.38;0.52;;;6.90;81.90;;;;;;5112809;28;20478;-85
2021/03/06 09:45:18;;;;;;;5.28;1.00;;;7.00;81.70;;;;;;5113252;28;20375;-69
2021/03/06 09:47:45;;;;;;;1.10;1.00;;;7.00;81.70;;;;;;5111854;28;20044;-75
2021/03/06 09:50:12;;;;;;;1.45;1.10;;;7.10;82.40;;;;;;5105317;28;20540;-78
2021/03/06 09:52:38;;;;;;;2.20;1.00;;;7.20;81.80;;;;;;5111303;28;20032;-81
2021/03/06 09:55:16;;;;;;;4.05;0.93;;;7.20;81.60;;;;;;5110212;28;20126;-78
2021/03/06 09:57:42;;;;;;;6.53;1.67;;;7.30;81.10;;;;;;5112162;28;20059;-75
2021/03/06 10:00:19;;;;;;;2.92;1.00;;;7.40;80.50;;;;;;5112932;28;20058;-80
2021/03/06 10:02:49;;;;;;;3.85;1.23;;;7.40;80.30;;;;;;5112287;28;20061;-85
2021/03/06 10:05:20;;;;;;;4.93;0.98;;;7.50;80.00;;;;;;5112527;28;20039;-84
2021/03/06 10:07:46;;;;;;;0.55;0.50;;;7.50;79.80;;;;;;5112638;28;20023;-83
2021/03/06 10:10:12;;;;;;;1.58;0.80;;;7.60;80.00;;;;;;5112531;28;20027;-83
2021/03/06 10:12:43;;;;;;;2.22;1.00;;;7.60;79.80;;;;;;5113220;28;20099;-83
2021/03/06 10:15:11;;;;;;;2.00;0.65;;;7.60;79.80;;;;;;5109516;28;20046;-70
2021/03/06 10:17:40;;;;;;;6.85;1.10;;;7.70;80.00;;;;;;5101446;28;20077;-82
2021/03/06 10:20:06;;;;;;;4.68;0.70;;;7.70;79.90;;;;;;5110928;28;20024;-73
2021/03/06 10:22:44;;;;;;;0.50;0.50;;;7.70;80.10;;;;;;5108611;28;20538;-81
2021/03/06 10:25:11;;;;;;;2.45;0.90;;;7.70;80.30;;;;;;5092147;28;20519;-77
2021/03/06 10:27:45;;;;;;;4.70;1.15;;;7.80;80.30;;;;;;5103441;28;20052;-74
2021/03/06 10:30:17;;;;;;;4.57;1.27;;;7.80;80.30;;;;;;5095580;28;20035;-75
2021/03/06 10:32:52;;;;;;;6.00;1.40;;;7.80;80.30;;;;;;5105200;28;20019;-74
2021/03/06 10:35:36;;;;;;;5.55;1.42;;;7.90;80.20;;;;;;5108025;28;20043;-78
2021/03/06 10:38:07;;;;;;;2.45;0.65;;;7.90;79.50;;;;;;5101295;28;20035;-74
2021/03/06 10:40:54;;;;;;;6.25;1.08;;;8.00;79.60;;;;;;5100198;28;20475;-82
2021/03/06 10:43:27;;;;;;;9.15;1.52;;;8.00;79.60;;;;;;5100864;28;20031;-75
2021/03/06 10:45:54;;;;;;;2.60;1.00;;;8.00;79.90;;;;;;5107266;28;20458;-82
2021/03/06 10:48:30;;;;;;;6.43;1.40;;;8.00;79.80;;;;;;5095477;28;20024;-76
2021/03/06 10:50:57;;;;;;;2.05;1.15;;;8.10;79.30;;;;;;5094529;28;20113;-79
2021/03/06 10:53:24;;;;;;;6.80;1.40;;;8.10;79.20;;;;;;5108910;28;20035;-78
2021/03/06 10:55:51;;;;;;;6.95;2.30;;;8.20;78.70;;;;;;5103139;28;20099;-85
2021/03/06 10:58:17;;;;;;;6.28;0.73;;;8.20;78.60;;;;;;5112916;28;20035;-83
2021/03/06 11:00:45;;;;;;;5.53;1.40;;;8.20;79.00;;;;;;5111197;28;20106;-81
2021/03/06 11:03:12;;;;;;;4.20;1.30;;;8.30;79.40;;;;;;5108718;28;20062;-84
2021/03/06 11:05:40;;;;;;;4.68;1.27;;;8.30;79.00;;;;;;5112146;28;20069;-84
2021/03/06 11:08:20;;;;;;;4.55;1.42;;;8.30;79.00;;;;;;5108604;28;20026;-82
2021/03/06 11:10:48;;;;;;;5.60;1.10;;;8.30;78.60;;;;;;5115221;28;20076;-83
2021/03/06 11:13:14;;;;;;;7.53;1.83;;;8.40;78.30;;;;;;5113866;27;20050;-85
2021/03/06 11:15:48;;;;;;;5.00;1.13;;;8.40;77.90;;;;;;5107261;28;20056;-82
2021/03/06 11:18:14;;;;;;;6.20;1.30;;;8.40;77.70;;;;;;5111697;28;20120;-79
2021/03/06 11:20:41;;;;;;;7.88;1.42;;;8.40;77.10;;;;;;5112884;28;20462;-77
2021/03/06 11:23:07;;;;;;;4.25;1.17;;;8.50;76.70;;;;;;5112922;28;20378;-77
2021/03/06 11:25:33;;;;;;;2.88;1.27;;;8.50;77.10;;;;;;5103047;28;20577;-75
2021/03/06 11:28:05;;;;;;;3.30;0.93;;;8.50;76.30;;;;;;5108069;28;20016;-77
2021/03/06 11:30:45;;;;;;;3.60;1.27;;;8.50;76.80;;;;;;5101043;28;20067;-77
2021/03/06 11:33:16;;;;;;;2.45;1.05;;;8.60;75.60;;;;;;5108185;28;20031;-80
2021/03/06 11:35:43;;;;;;;6.05;1.10;;;8.60;76.50;;;;;;5114518;28;20036;-78
2021/03/06 11:38:10;;;;;;;3.30;1.10;;;8.60;76.50;;;;;;5114282;28;20028;-83
2021/03/06 11:40:39;;;;;;;4.20;0.98;;;8.70;75.70;;;;;;5111913;28;20028;-81
2021/03/06 11:43:06;;;;;;;6.25;1.30;;;8.70;75.50;;;;;;5088032;28;20138;-82
2021/03/06 11:45:32;;;;;;;3.17;1.25;;;8.70;75.10;;;;;;5107756;28;20087;-79
2021/03/06 11:47:58;;;;;;;6.30;1.45;;;8.80;75.40;;;;;;5101285;27;20024;-77
2021/03/06 11:50:27;;;;;;;6.82;1.52;;;8.80;75.50;;;;;;5102102;28;20031;-75
2021/03/06 11:52:54;;;;;;;4.00;1.13;;;8.80;75.00;;;;;;5113161;28;20035;-76
2021/03/06 11:55:20;;;;;;;2.15;0.77;;;8.80;75.40;;;;;;5104408;27;20028;-82
2021/03/06 11:57:48;;;;;;;2.33;0.80;;;8.90;76.50;;;;;;5112066;28;20371;-72
2021/03/06 12:00:25;;;;;;;2.05;0.70;;;8.90;76.50;;;;;;5105477;28;20039;-76
2021/03/06 12:02:51;;;;;;;7.03;1.30;;;8.90;76.30;;;;;;5102987;28;20432;-78
2021/03/06 12:05:17;;;;;;;1.40;0.70;;;8.90;75.80;;;;;;5103502;28;20064;-76
2021/03/06 12:07:44;;;;;;;4.60;0.82;;;9.00;76.00;;;;;;5099291;28;20024;-77
2021/03/06 12:10:16;;;;;;;2.28;0.88;;;8.90;76.40;;;;;;5112303;28;20111;-76
2021/03/06 12:12:43;;;;;;;3.63;1.00;;;9.00;75.80;;;;;;5113404;28;20038;-76
2021/03/06 12:15:10;;;;;;;1.33;0.47;;;9.00;74.40;;;;;;5108485;28;20475;-76
2021/03/06 12:17:36;;;;;;;3.08;1.20;;;9.00;74.90;;;;;;5107679;28;20477;-78
2021/03/06 12:20:03;;;;;;;3.40;0.90;;;9.00;75.50;;;;;;5106254;28;20035;-78
2021/03/06 12:22:29;;;;;;;5.65;1.10;;;9.10;75.50;;;;;;5105813;28;20031;-78
2021/03/06 12:24:55;;;;;;;5.45;0.98;;;9.10;73.90;;;;;;5092727;28;20516;-78
2021/03/06 12:27:21;;;;;;;5.70;0.80;;;9.10;73.70;;;;;;5102593;28;20040;-78
2021/03/06 12:29:46;;;;;;;6.65;1.15;;;9.10;73.50;;;;;;5106090;28;20436;-79
2021/03/06 12:32:12;;;;;;;4.18;0.73;;;9.20;73.70;;;;;;5105488;28;20020;-78
2021/03/06 12:34:38;;;;;;;5.20;0.98;;;9.10;74.60;;;;;;5107905;28;20498;-79
2021/03/06 12:37:04;;;;;;;1.30;0.70;;;9.10;73.80;;;;;;5102919;28;20027;-79
2021/03/06 12:39:31;;;;;;;3.40;1.20;;;9.20;73.40;;;;;;5113241;27;20032;-78
2021/03/06 12:41:57;;;;;;;3.75;1.50;;;9.20;73.70;;;;;;5103390;28;20027;-78
2021/03/06 12:44:22;;;;;;;4.38;2.13;;;9.20;72.70;;;;;;5097323;28;20500;-80
2021/03/06 12:46:48;;;;;;;3.78;0.85;;;9.20;73.00;;;;;;5113325;28;20024;-79
2021/03/06 12:49:15;;;;;;;2.95;0.80;;;9.20;73.40;;;;;;5110143;28;20028;-80
2021/03/06 12:51:41;;;;;;;4.93;1.25;;;9.30;73.90;;;;;;5100746;28;20031;-76
2021/03/06 12:54:07;;;;;;;3.53;1.27;;;9.30;73.80;;;;;;5111839;28;20099;-75
2021/03/06 12:56:33;;;;;;;5.45;1.20;;;9.30;73.30;;;;;;5108494;28;20061;-80
2021/03/06 12:58:59;;;;;;;7.13;1.10;;;9.30;72.40;;;;;;5112455;28;20103;-79
2021/03/06 13:01:25;;;;;;;1.25;0.60;;;9.20;73.20;;;;;;5112881;28;20423;-81
2021/03/06 13:03:51;;;;;;;3.63;1.48;;;9.20;74.80;;;;;;5112736;28;20051;-82
2021/03/06 13:06:16;;;;;;;3.47;0.80;;;9.20;74.00;;;;;;5109587;28;20027;-82
2021/03/06 13:08:42;;;;;;;2.20;0.90;;;9.20;73.20;;;;;;5101512;28;20028;-79
2021/03/06 13:11:08;;;;;;;2.83;0.90;;;9.30;74.40;;;;;;5106808;28;20382;-81